• Join FlightAware (Why Join?)
  • Login
  • US Flag 
04:33PM EDT


 

Airport Tracker/Info


-or-


 

Live Flight TrackerFlight Track Log ✈ C-GFMT ✈ 19-Aug-2013 ✈ CYKZ - CYKZ

Flight Track Log - Related Links

Times and Time Zones

All times are in EDT time to prevent confusion due to time zone crossing. See the C-GFMT flight status page for this flight to view local times or setup timezone preferences in your user account.

Time Position Orientation Groundspeed Altitude Reporting Facility
EDT Latitude Longitude Course Direction KTS MPH feet Rate Location/Type
02:24PM 43.8667 -79.3833 276° West 70 81 1,500  Level Toronto Center
02:25PM 43.8833 -79.4000 324° Northwest 110 127 2,100 600 Climbing Toronto Center
02:26PM 43.9167 -79.4167 340° North 110 127 2,800 420 Climbing Toronto Center
02:27PM 43.9333 -79.4500 305° West 110 127 3,000 60 Climbing Toronto Center
02:28PM 43.8622 -79.3700 268° West  Level Estimated
02:28PM 43.9667 -79.5000 313° West 130 150 3,000  Level Toronto Center
02:29PM 43.8622 -79.3700 276° West  Level Estimated
02:29PM 43.9833 -79.5167 324° Northwest 120 138 3,300  Level Toronto Center
02:30PM 43.9667 -79.5667 245° Southwest 120 138 3,900 360 Climbing Toronto Center
02:31PM 43.9667 -79.6167 270° West 120 138 4,100 60 Climbing Toronto Center
02:32PM 43.9500 -79.6500 235° Southwest 130 150 4,100 -60 Level Toronto Center
02:33PM 43.9500 -79.7000 270° West 130 150 4,000  Descending Toronto Center
02:34PM 43.9333 -79.7500 245° Southwest 130 150 4,100 60 Climbing Toronto Center
02:35PM 43.9333 -79.8167 270° West 130 150 4,200 -120 Climbing Toronto Center
02:36PM 43.9333 -79.8667 270° West 140 161 3,900 -120 Descending Toronto Center
02:37PM 43.9167 -79.9167 245° Southwest 130 150 4,000  Climbing Toronto Center
02:38PM 43.9167 -79.9500 270° West 130 150 4,000  Level Toronto Center
02:39PM 43.9000 -80.0000 245° Southwest 130 150 4,000 -60 Level Toronto Center
02:40PM 43.8667 -80.0333 216° Southwest 140 161 3,900  Descending Toronto Center
02:41PM 43.8333 -80.0500 200° South 130 150 4,100  Climbing Toronto Center
02:42PM 43.8000 -80.0667 200° South 130 150 3,900  Descending Toronto Center
02:43PM 43.7667 -80.1000 216° Southwest 130 150 4,100 60 Climbing Toronto Center
02:44PM 43.7333 -80.1167 200° South 140 161 4,100  Level Toronto Center
02:45PM 43.6833 -80.1333 194° South 140 161 4,100 120 Level Toronto Center
02:46PM 43.6500 -80.1667 216° Southwest 140 161 4,400 420 Climbing Toronto Center
02:47PM 43.6167 -80.1833 200° South 120 138 5,000 300 Climbing Toronto Center
02:48PM 43.5833 -80.2167 216° Southwest 140 161 5,000  Level Toronto Center
02:49PM 43.5500 -80.2333 200° South 140 161 5,000  Level Toronto Center
02:50PM 43.5167 -80.2500 200° South 130 150 5,100 60 Climbing Toronto Center
02:51PM 43.4833 -80.2833 216° Southwest 130 150 5,200  Climbing Toronto Center
02:52PM 43.4833 -80.3000 270° West 120 138 5,100 -60 Descending Toronto Center
02:53PM 43.5167 -80.2500 47° Northeast 140 161 5,100  Level Toronto Center
02:54PM 43.5167 -80.2000 90° East 140 161 5,100 -60 Level Toronto Center
02:55PM 43.5000 -80.2333 235° Southwest 120 138 5,000 -60 Descending Toronto Center
02:56PM 43.4833 -80.2833 245° Southwest 120 138 5,000  Level Toronto Center
02:57PM 43.5167 -80.2833 360° North 120 138 5,000  Level Toronto Center
02:58PM 43.5333 -80.2333 65° Northeast 140 161 5,100  Climbing Toronto Center
02:59PM 43.5000 -80.2333 180° South 120 138 5,000 -60 Descending Toronto Center
03:00PM 43.4833 -80.2833 245° Southwest 120 138 5,000  Level Toronto Center
03:01PM 43.5000 -80.3000 324° Northwest 120 138 5,100 -360 Climbing Toronto Center
03:02PM 43.5333 -80.2833 20° North 140 161 4,300 -780 Descending Toronto Center
03:03PM 43.5500 -80.2333 65° Northeast 140 161 3,600 -600 Descending Toronto Center
03:04PM 43.5167 -80.2000 144° Southeast 120 138 3,100 -420 Descending Toronto Center
03:05PM 43.5000 -80.2333 235° Southwest 110 127 2,800 -360 Descending Toronto Center
03:06PM 43.4833 -80.2500 216° Southwest 90 104 2,400 -420 Descending Toronto Center
03:07PM 43.4833 -80.3000 270° West 90 104 2,000 -480 Descending Toronto Center
03:08PM 43.4667 -80.3167 216° Southwest 100 115 1,500 -120 Descending Toronto Center
03:09PM 43.4500 -80.3667 245° Southwest 100 115 1,800 600 Climbing Toronto Center
03:10PM 43.4333 -80.3833 216° Southwest 110 127 2,800 600 Climbing Toronto Center
03:11PM 43.4167 -80.4333 245° Southwest 110 127 3,000 300 Climbing Toronto Center
03:12PM 43.4000 -80.4667 235° Southwest 110 127 3,400 480 Climbing Toronto Center
03:13PM 43.3667 -80.4667 180° South 110 127 4,000 300 Climbing Toronto Center
03:14PM 43.3333 -80.4500 160° South 130 150 4,000  Level Toronto Center
03:15PM 43.3000 -80.4167 144° Southeast 140 161 4,000 -60 Level Toronto Center
03:16PM 43.3000 -80.3667 90° East 140 161 3,900  Descending Toronto Center
03:17PM 43.3167 -80.3500 36° Northeast 140 161 4,000 60 Climbing Toronto Center
03:18PM 43.3333 -80.3000 65° Northeast 130 150 4,100  Climbing Toronto Center
03:19PM 43.3667 -80.2500 47° Northeast 140 161 4,100 -360 Level Toronto Center
03:20PM 43.3833 -80.2000 65° Northeast 140 161 3,400 -420 Descending Toronto Center
03:21PM 43.4000 -80.1667 55° Northeast 130 150 3,300 -180 Descending Toronto Center
03:22PM 43.4333 -80.1167 47° Northeast 140 161 3,100 -60 Descending Toronto Center
03:23PM 43.4500 -80.1000 36° Northeast 130 150 3,200  Climbing Toronto Center
03:24PM 43.4833 -80.0500 47° Northeast 140 161 3,100 -60 Descending Toronto Center
03:25PM 43.5167 -80.0667 340° North 130 150 3,100 -60 Level Toronto Center
03:26PM 43.5333 -80.1000 305° West 120 138 3,000  Descending Toronto Center
03:27PM 43.5333 -80.1167 270° West 90 104 3,100  Climbing Toronto Center
03:28PM 43.5333 -80.1667 270° West 100 115 3,100 -60 Level Toronto Center
03:29PM 43.5167 -80.1833 216° Southwest 100 115 3,000 -120 Descending Toronto Center
03:30PM 43.5000 -80.2333 245° Southwest 90 104 2,900 -180 Descending Toronto Center
03:31PM 43.5000 -80.2500 270° West 90 104 2,700 -420 Descending Toronto Center
03:32PM 43.4833 -80.2833 235° Southwest 100 115 2,100 -600 Descending Toronto Center
03:33PM 43.4667 -80.3167 235° Southwest 100 115 1,600 -120 Descending Toronto Center
03:34PM 43.4667 -80.3500 270° West 90 104 1,900 420 Climbing Toronto Center
03:35PM 43.5000 -80.3500 360° North 100 115 2,500 780 Climbing Toronto Center
03:36PM 43.5333 -80.3500 360° North 120 138 3,500 840 Climbing Toronto Center
03:37PM 43.5667 -80.3500 360° North 120 138 4,200 720 Climbing Toronto Center
03:38PM 43.6000 -80.3167 36° Northeast 130 150 5,000 420 Climbing Toronto Center
03:39PM 43.6333 -80.3000 20° North 140 161 5,100  Climbing Toronto Center
03:40PM 43.6667 -80.2833 20° North 140 161 5,000  Descending Toronto Center
03:41PM 43.7000 -80.2333 47° Northeast 130 150 5,100  Climbing Toronto Center
03:42PM 43.7333 -80.2167 20° North 140 161 5,100 -60 Level Toronto Center
03:43PM 43.7667 -80.2167 360° North 140 161 5,000 -60 Descending Toronto Center
03:44PM 43.8000 -80.1833 36° Northeast 130 150 5,000  Level Toronto Center
03:45PM 43.8333 -80.1667 20° North 130 150 5,000  Level Toronto Center
03:46PM 43.8667 -80.1333 36° Northeast 130 150 5,000  Level Toronto Center
03:47PM 43.9000 -80.1167 20° North 130 150 5,000  Level Toronto Center
03:48PM 43.9000 -80.0500 90° East 140 161 5,100  Climbing Toronto Center
03:49PM 43.9167 -80.0000 65° Northeast 150 173 5,000 -60 Descending Toronto Center
03:50PM 43.9333 -79.9500 65° Northeast 150 173 5,000  Level Toronto Center
03:51PM 43.9500 -79.8833 71° East 140 161 5,100 -360 Climbing Toronto Center
03:52PM 43.9667 -79.8333 65° Northeast 150 173 4,300 -600 Descending Toronto Center
03:53PM 43.9833 -79.8000 55° Northeast 150 173 4,000 -180 Descending Toronto Center
03:54PM 44.0000 -79.7333 71° East 150 173 4,000 -180 Level Toronto Center
03:55PM 44.0000 -79.6833 90° East 150 173 3,700 -540 Descending Toronto Center
03:56PM 43.9833 -79.6167 109° East 160 184 3,000 -360 Descending Toronto Center
03:57PM 43.9833 -79.5667 90° East 150 173 3,000  Level Toronto Center
03:58PM 43.9667 -79.5167 115° Southeast 140 161 3,100  Climbing Toronto Center
03:59PM 43.9500 -79.4500 109° East 150 173 3,000 -300 Descending Toronto Center
04:00PM 43.9333 -79.4000 115° Southeast 140 161 2,600 -660 Descending Toronto Center
04:01PM 43.9000 -79.3833 160° South 130 150 1,700 -480 Descending Toronto Center
04:02PM 43.8833 -79.3500 125° Southeast 120 138 1,700  Level Toronto Center
04:03PM 43.8500 -79.3167 144° Southeast 120 138 1,700 -180 Level Toronto Center
04:04PM 43.8333 -79.3167 180° South 90 104 1,400 -480 Descending Toronto Center
04:05PM 43.8500 -79.3333 324° Northwest 90 104 800 -600 Descending Toronto Center
04:07PM 43.8622 -79.3700 North  Level Estimated